KOZW

Livingston County Spencer J Hardy Airport

Howell, Michigan, USA
METAR KOZW 212335Z AUTO 05004KT 10SM CLR 23/13 A2984 RMK AO2 T02290131
Observed Flight Rules
Jun-21 @ 23:35 UTC (23 minutes ago) Visual Flight Rules
Wind Visibility Clouds
50° at 4 knots 10 miles
  • Clear skies
Temperatures Readings
Current 23°C / 73°F
Dewpoint 13°C / 55°F
Humidity 53%
Altimeter 29.84" Hg
Pressure 1010 hPa
Elevation 293
METAR KOZW 212335Z AUTO 05004KT 10SM CLR 23/13 A2984 RMK AO2 T02290131
Observed Flight Rules
Jun-21 @ 23:35 UTC
(23 minutes ago)
VFR
Wind Visibility
50° at 4 knots 10 miles
Clouds
  • Clear skies
Temperature Dewpoint
23°C / 73°F 13°C / 55°F
Humidity Altimeter Pressure
53% 29.84" Hg 1010 hPa